Eldersburg, Maryland
Current Conditions -  °F | °C
As of 10:30 AM on Wednesday 26 Nov 2014 (Local Time) from KDMW Reporting Station
Moderate Snow Moderate Snow  
Wind Chill: 30°   Ceiling: 300
Heat Index: 34°   Visibility: 0.25mi
Dew Point: 30°   Wind: 5mph
Humidity: 87%   Direction: 10°N
Pressure: 30.06"   Gusts: NA
Location:  39.3995°N, 76.9748°W
Report Text: KDMW 261530Z AUTO 01004KT 1/4SM SN OVC003 01/M01 A3006 RMK AO2 LTG DSNT S P0004
Loading
Personal Weather Stations






























Interactive Weather Map New forecast layout! Learn more

10-Day Weather Forecast

Advertisements
Track Severe Weather on mobile